Time;durP1;ratioP1;P1;durP2;ratioP2;P2;SDS_P1;SDS_P2;PMS_P1;PMS_P2;Temp;Humidity;BMP_temperature;BMP_pressure;BME280_temperature;BME280_humidity;BME280_pressure;Samples;Min_cycle;Max_cycle;Signal;HPM_P1;HPM_P2
2023/08/25 00:00:20;;;;;;;6.80;5.00;;;;;;;18.46;88.90;100207.77;105594;1254;69078;-63
2023/08/25 00:03:07;;;;;;;12.10;5.10;;;;;;;18.50;88.74;100198.44;105559;1254;69080;-63
2023/08/25 00:05:38;;;;;;;5.80;4.40;;;;;;;18.55;88.81;100194.92;105624;1252;74935;-63
2023/08/25 00:08:07;;;;;;;6.80;4.40;;;;;;;18.61;88.83;100188.84;105595;1254;81764;-63
2023/08/25 00:10:34;;;;;;;6.90;4.30;;;;;;;18.65;88.79;100181.82;105593;1252;72594;-63
2023/08/25 00:13:02;;;;;;;6.30;4.20;;;;;;;18.66;88.59;100187.70;105605;1256;69105;-63
2023/08/25 00:15:29;;;;;;;8.40;4.60;;;;;;;18.69;88.57;100187.52;105609;1256;69656;-63
2023/08/25 00:17:56;;;;;;;5.30;4.40;;;;;;;18.72;88.46;100186.05;105589;1254;74851;-63
2023/08/25 00:20:23;;;;;;;6.20;4.10;;;;;;;18.76;88.40;100179.75;105498;1256;83049;-63
2023/08/25 00:22:50;;;;;;;5.00;4.10;;;;;;;18.81;88.32;100175.36;105566;1254;72662;-63
2023/08/25 00:25:17;;;;;;;5.70;4.10;;;;;;;18.84;88.20;100172.98;105606;1257;69142;-63
2023/08/25 00:27:43;;;;;;;8.10;4.40;;;;;;;18.87;88.13;100170.27;105568;1252;69162;-63
2023/08/25 00:30:12;;;;;;;11.00;4.60;;;;;;;18.88;88.09;100169.86;105619;1254;73791;-63
2023/08/25 00:32:39;;;;;;;5.70;4.50;;;;;;;18.90;88.04;100166.52;105588;1254;83084;-63
2023/08/25 00:35:06;;;;;;;5.20;4.10;;;;;;;18.90;87.82;100164.52;105622;1256;73629;-63
2023/08/25 00:37:33;;;;;;;6.50;4.50;;;;;;;18.92;87.78;100156.64;105624;1254;69190;-63
2023/08/25 00:40:00;;;;;;;6.10;4.30;;;;;;;18.95;88.10;100152.84;105583;1252;69198;-63
2023/08/25 00:42:27;;;;;;;7.40;4.00;;;;;;;18.99;88.14;100148.80;105588;1256;74812;-63
2023/08/25 00:44:54;;;;;;;6.40;4.10;;;;;;;19.01;88.03;100147.13;105559;1254;82395;-63
2023/08/25 00:47:21;;;;;;;7.40;4.30;;;;;;;19.02;88.26;100146.83;105556;1257;73715;-63
2023/08/25 00:49:48;;;;;;;4.80;4.20;;;;;;;19.05;88.38;100140.76;105642;1254;69220;-63
2023/08/25 00:52:17;;;;;;;5.70;3.90;;;;;;;19.06;88.42;100141.71;105501;1257;69603;-63
2023/08/25 00:54:44;;;;;;;5.90;4.10;;;;;;;19.08;88.36;100136.98;105543;1254;74905;-63
2023/08/25 00:57:12;;;;;;;7.00;4.30;;;;;;;19.09;88.27;100134.59;105620;1257;82451;-63
2023/08/25 00:59:40;;;;;;;5.40;4.20;;;;;;;19.11;88.29;100125.95;105535;1254;73821;-63
2023/08/25 01:02:07;;;;;;;4.60;4.20;;;;;;;19.13;88.41;100124.52;105634;1256;69173;-63
2023/08/25 01:04:34;;;;;;;6.80;3.70;;;;;;;19.16;88.43;100121.43;105549;1254;69166;-63
2023/08/25 01:07:01;;;;;;;5.50;4.10;;;;;;;19.18;88.30;100122.58;105562;1256;73931;-63
2023/08/25 01:09:29;;;;;;;4.80;4.30;;;;;;;19.20;88.45;100119.43;105592;1254;83335;-63
2023/08/25 01:12:17;;;;;;;4.70;4.30;;;;;;;19.20;88.40;100116.89;105557;1254;72770;-63
2023/08/25 01:14:58;;;;;;;4.20;3.80;;;;;;;19.22;88.44;100115.16;105618;1253;69260;-63
2023/08/25 01:17:36;;;;;;;4.40;3.80;;;;;;;19.24;88.37;100115.73;105616;1254;69138;-63
2023/08/25 01:20:07;;;;;;;4.70;4.20;;;;;;;19.24;88.43;100116.75;105635;1253;74784;-63
2023/08/25 01:23:02;;;;;;;7.00;4.10;;;;;;;19.27;88.37;100117.42;105592;1256;83327;-63
2023/08/25 01:25:30;;;;;;;4.40;3.70;;;;;;;19.31;87.74;100109.69;105589;1254;72575;-63
2023/08/25 01:28:00;;;;;;;6.10;4.50;;;;;;;19.37;87.19;100109.39;105532;1254;69269;-63
2023/08/25 01:30:31;;;;;;;6.20;4.70;;;;;;;19.46;86.82;100107.80;105633;1256;69145;-63
2023/08/25 01:32:59;;;;;;;7.50;4.80;;;;;;;19.55;86.23;100108.31;105603;1254;73855;-63
2023/08/25 01:35:35;;;;;;;6.00;4.60;;;;;;;19.65;85.87;100106.33;105643;1256;83292;-63
2023/08/25 01:38:15;;;;;;;6.00;4.70;;;;;;;19.76;85.35;100103.86;105498;1256;73009;-63
2023/08/25 01:40:51;;;;;;;6.30;4.30;;;;;;;19.86;84.92;100094.59;105605;1253;69169;-63
2023/08/25 01:43:21;;;;;;;6.10;4.60;;;;;;;19.93;84.32;100095.04;105601;1254;69167;-63
2023/08/25 01:45:49;;;;;;;9.70;4.60;;;;;;;20.00;83.97;100090.02;105743;1254;74731;-63
2023/08/25 01:48:16;;;;;;;7.00;4.70;;;;;;;20.06;83.45;100083.84;105469;1259;83343;-65
2023/08/25 01:50:44;;;;;;;6.40;4.70;;;;;;;20.13;83.02;100077.48;105633;1254;73438;-64
2023/08/25 01:53:11;;;;;;;9.00;4.30;;;;;;;20.19;82.66;100074.27;105530;1255;69169;-63
2023/08/25 01:55:38;;;;;;;6.20;5.00;;;;;;;20.24;82.29;100069.27;105602;1254;69173;-63
2023/08/25 01:58:05;;;;;;;5.80;4.60;;;;;;;20.29;81.91;100072.27;105541;1253;74906;-63
2023/08/25 02:00:32;;;;;;;6.20;5.10;;;;;;;20.31;81.54;100072.41;105491;1256;83202;-64
2023/08/25 02:02:59;;;;;;;5.90;4.40;;;;;;;20.33;81.20;100077.25;105513;1252;73532;-63
2023/08/25 02:05:27;;;;;;;11.90;5.30;;;;;;;20.32;80.90;100080.83;105652;1256;69195;-63
2023/08/25 02:07:55;;;;;;;7.40;5.00;;;;;;;20.33;80.66;100076.69;105490;1256;69282;-63
2023/08/25 02:10:22;;;;;;;6.90;5.00;;;;;;;20.35;80.49;100070.67;105572;1254;73718;-63
2023/08/25 02:12:49;;;;;;;7.90;5.10;;;;;;;20.37;80.27;100069.97;105526;1254;82301;-64
2023/08/25 02:15:16;;;;;;;6.40;5.00;;;;;;;20.38;80.08;100067.59;105563;1256;72661;-64
2023/08/25 02:17:44;;;;;;;7.80;5.20;;;;;;;20.38;79.78;100064.41;105621;1253;69062;-63
2023/08/25 02:20:12;;;;;;;10.30;5.30;;;;;;;20.37;79.68;100066.40;105509;1254;69186;-64
2023/08/25 02:22:39;;;;;;;5.90;5.10;;;;;;;20.37;79.56;100063.41;105548;1257;73460;-63
2023/08/25 02:25:07;;;;;;;11.40;5.70;;;;;;;20.36;79.39;100060.15;105574;1254;82426;-63
2023/08/25 02:27:34;;;;;;;10.60;5.10;;;;;;;20.36;79.38;100058.39;105598;1257;73879;-63
2023/08/25 02:30:00;;;;;;;7.20;5.00;;;;;;;20.34;79.24;100050.34;105646;1254;69205;-63
2023/08/25 02:32:27;;;;;;;7.40;5.00;;;;;;;20.35;79.21;100044.94;105622;1256;69185;-63
2023/08/25 02:34:55;;;;;;;6.50;4.60;;;;;;;20.35;79.31;100040.14;105527;1254;74844;-63
2023/08/25 02:37:21;;;;;;;12.10;5.00;;;;;;;20.36;79.58;100033.86;105560;1255;83286;-63
2023/08/25 02:39:48;;;;;;;6.80;5.10;;;;;;;20.36;79.83;100029.45;105525;1254;73500;-63
2023/08/25 02:42:15;;;;;;;8.90;5.20;;;;;;;20.37;80.23;100033.79;105493;1257;69157;-63
2023/08/25 02:44:42;;;;;;;9.90;5.60;;;;;;;20.33;80.45;100030.35;105557;1254;69152;-63
2023/08/25 02:47:10;;;;;;;5.60;5.00;;;;;;;20.28;80.92;100029.70;105576;1254;73659;-63
2023/08/25 02:49:38;;;;;;;9.20;5.90;;;;;;;20.25;80.83;100032.95;105525;1257;83660;-63
2023/08/25 02:52:06;;;;;;;7.00;5.10;;;;;;;20.21;80.93;100030.84;105566;1254;73779;-63
2023/08/25 02:54:32;;;;;;;10.50;4.90;;;;;;;20.16;80.80;100029.86;105570;1253;69077;-63
2023/08/25 02:57:00;;;;;;;10.10;4.80;;;;;;;20.11;80.52;100030.98;105663;1256;69115;-63
2023/08/25 02:59:27;;;;;;;7.00;4.90;;;;;;;20.08;80.45;100034.73;105515;1254;74622;-63
2023/08/25 03:01:54;;;;;;;6.50;5.40;;;;;;;20.06;80.35;100034.23;105590;1256;82197;-63
2023/08/25 03:04:22;;;;;;;7.30;5.00;;;;;;;20.04;80.30;100033.31;105451;1257;73556;-63
2023/08/25 03:06:49;;;;;;;9.80;5.70;;;;;;;20.03;80.34;100039.94;105584;1255;69169;-63
2023/08/25 03:09:17;;;;;;;6.50;4.50;;;;;;;20.02;80.24;100042.86;105580;1255;69196;-64
2023/08/25 03:11:44;;;;;;;8.80;5.30;;;;;;;19.99;80.11;100042.02;105592;1256;73793;-64
2023/08/25 03:14:11;;;;;;;6.00;4.80;;;;;;;19.98;80.07;100032.77;105506;1256;83870;-63
2023/08/25 03:16:38;;;;;;;5.10;4.60;;;;;;;19.97;80.19;100021.63;105569;1254;72559;-63
2023/08/25 03:19:05;;;;;;;8.70;5.50;;;;;;;19.97;80.16;100021.67;105603;1254;69205;-63
2023/08/25 03:21:32;;;;;;;6.00;5.30;;;;;;;19.96;80.25;100021.76;105503;1253;69162;-63
2023/08/25 03:23:59;;;;;;;6.80;5.20;;;;;;;19.94;80.13;100024.39;105490;1257;73960;-63
2023/08/25 03:26:27;;;;;;;9.80;5.30;;;;;;;19.92;80.05;100020.48;105516;1254;82309;-63
2023/08/25 03:28:54;;;;;;;7.10;5.20;;;;;;;19.90;80.15;100006.31;105624;1257;73774;-63
2023/08/25 03:31:22;;;;;;;7.90;5.80;;;;;;;19.91;80.40;100000.19;105583;1254;69170;-63
2023/08/25 03:33:49;;;;;;;8.80;5.50;;;;;;;19.92;80.34;100000.29;105574;1254;69185;-63
2023/08/25 03:36:16;;;;;;;5.80;5.20;;;;;;;19.90;80.18;100001.16;105527;1256;73897;-63
2023/08/25 03:38:44;;;;;;;6.50;5.50;;;;;;;19.88;80.13;99989.29;105744;1256;83480;-64
2023/08/25 03:41:13;;;;;;;6.90;5.50;;;;;;;19.87;80.27;99985.27;105623;1252;72655;-64
2023/08/25 03:43:40;;;;;;;6.40;5.40;;;;;;;19.86;80.43;99981.12;105478;1257;69278;-65
2023/08/25 03:46:07;;;;;;;8.50;5.50;;;;;;;19.88;80.77;99981.30;105622;1256;69117;-62
2023/08/25 03:48:34;;;;;;;7.50;5.60;;;;;;;19.88;80.77;99986.05;105651;1254;74883;-63
2023/08/25 03:51:01;;;;;;;7.60;5.40;;;;;;;19.87;80.91;99987.04;105479;1254;82454;-64
2023/08/25 03:53:29;;;;;;;6.00;5.10;;;;;;;19.87;81.19;99987.89;105682;1256;72560;-63
2023/08/25 03:55:56;;;;;;;8.00;5.20;;;;;;;19.86;81.36;99987.44;105598;1252;69145;-63
2023/08/25 03:58:22;;;;;;;7.40;5.60;;;;;;;19.83;81.26;99981.46;105600;1254;69174;-63
2023/08/25 04:00:53;;;;;;;10.10;5.80;;;;;;;19.83;81.41;99977.77;105652;1256;74014;-63
2023/08/25 04:03:19;;;;;;;8.00;5.70;;;;;;;19.83;81.58;99960.57;105589;1254;81521;-63
2023/08/25 04:05:47;;;;;;;6.60;5.90;;;;;;;19.83;81.76;99953.98;105626;1254;72553;-63
2023/08/25 04:08:14;;;;;;;7.60;5.40;;;;;;;19.84;81.60;99954.48;105550;1256;69389;-63
2023/08/25 04:10:43;;;;;;;51.90;30.50;;;;;;;19.84;81.63;99961.05;105686;1256;69182;-63
2023/08/25 04:13:10;;;;;;;20.60;14.00;;;;;;;19.83;81.35;99983.27;105623;1255;75230;-63
2023/08/25 04:15:37;;;;;;;10.10;7.60;;;;;;;19.78;81.26;99989.14;105470;1257;83252;-63
2023/08/25 04:18:06;;;;;;;8.20;6.60;;;;;;;19.76;81.41;99988.26;105570;1254;74441;-63
2023/08/25 04:20:33;;;;;;;7.20;6.20;;;;;;;19.77;81.57;99987.86;105589;1254;69221;-63
2023/08/25 04:23:03;;;;;;;9.20;6.40;;;;;;;19.78;81.57;99983.29;105577;1254;69193;-63
2023/08/25 04:25:30;;;;;;;8.20;5.90;;;;;;;19.80;81.60;99978.52;105583;1254;73765;-63
2023/08/25 04:28:00;;;;;;;12.50;8.70;;;;;;;19.83;81.79;99979.00;105587;1253;82664;-63
2023/08/25 04:30:27;;;;;;;11.00;8.50;;;;;;;19.86;81.79;99983.59;105460;1254;73573;-63
2023/08/25 04:32:56;;;;;;;14.20;8.30;;;;;;;19.90;81.84;99977.88;105600;1254;69070;-63
2023/08/25 04:35:24;;;;;;;11.80;7.30;;;;;;;19.94;81.84;99975.98;105612;1256;69175;-66
2023/08/25 04:37:51;;;;;;;10.80;8.60;;;;;;;19.97;81.64;99974.16;105451;1254;74934;-66
2023/08/25 04:40:20;;;;;;;15.70;10.60;;;;;;;19.99;81.94;99972.54;105489;1256;83504;-66
2023/08/25 04:42:47;;;;;;;23.00;14.20;;;;;;;20.01;82.09;99966.68;105635;1254;72586;-63
2023/08/25 04:45:14;;;;;;;10.40;9.10;;;;;;;20.03;82.11;99964.06;105552;1254;69128;-63
2023/08/25 04:47:41;;;;;;;9.50;7.20;;;;;;;20.02;82.20;99963.25;105569;1253;69207;-62
2023/08/25 04:50:09;;;;;;;10.40;7.60;;;;;;;20.01;82.31;99955.36;105637;1256;73831;-62
2023/08/25 04:52:38;;;;;;;9.40;7.40;;;;;;;20.02;82.41;99954.37;105614;1254;82403;-63
2023/08/25 04:55:06;;;;;;;12.70;6.80;;;;;;;20.04;82.44;99951.95;105731;1251;72641;-61
2023/08/25 04:57:35;;;;;;;8.60;6.70;;;;;;;20.04;82.20;99952.58;105752;1255;69174;-61
2023/08/25 05:00:05;;;;;;;9.50;6.50;;;;;;;20.07;82.29;99947.80;105819;1256;69098;-64
2023/08/25 05:02:32;;;;;;;9.10;6.80;;;;;;;20.10;82.26;99944.30;105700;1254;73573;-61
2023/08/25 05:05:02;;;;;;;8.10;6.80;;;;;;;20.14;82.55;99945.45;105523;1257;83250;-63
2023/08/25 05:07:29;;;;;;;7.80;5.70;;;;;;;20.17;82.50;99948.36;105646;1254;72827;-63
2023/08/25 05:09:57;;;;;;;9.80;6.40;;;;;;;20.20;82.44;99941.85;105815;1254;69080;-66
2023/08/25 05:12:25;;;;;;;9.50;5.60;;;;;;;20.22;82.52;99944.48;105787;1256;69733;-63
2023/08/25 05:14:52;;;;;;;6.30;5.30;;;;;;;20.25;82.51;99947.09;105589;1252;74242;-64
2023/08/25 05:17:19;;;;;;;8.80;5.90;;;;;;;20.28;82.33;99944.73;105590;1256;83526;-63
2023/08/25 05:19:49;;;;;;;9.50;6.60;;;;;;;20.31;82.18;99941.35;105716;1251;72672;-62
2023/08/25 05:22:17;;;;;;;7.30;5.80;;;;;;;20.32;82.24;99941.76;105721;1256;69220;-58
2023/08/25 05:24:44;;;;;;;8.50;5.90;;;;;;;20.34;82.28;99941.96;105806;1254;69155;-60
2023/08/25 05:27:12;;;;;;;8.90;6.00;;;;;;;20.36;82.19;99936.85;105850;1254;74615;-59
2023/08/25 05:29:39;;;;;;;6.60;5.70;;;;;;;20.37;82.10;99936.02;105869;1256;83361;-58
2023/08/25 05:32:16;;;;;;;9.20;6.10;;;;;;;20.37;82.10;99929.58;105532;1256;73711;-60
2023/08/25 05:35:01;;;;;;;6.40;5.70;;;;;;;20.36;82.02;99928.08;105660;1256;69145;-60
2023/08/25 05:37:29;;;;;;;8.60;5.70;;;;;;;20.36;82.00;99925.64;105706;1257;69103;-60
2023/08/25 05:39:58;;;;;;;7.50;5.70;;;;;;;20.36;82.12;99923.48;105707;1254;74904;-60
2023/08/25 05:42:27;;;;;;;11.50;6.20;;;;;;;20.38;82.36;99924.36;105627;1256;83357;-60
2023/08/25 05:44:54;;;;;;;8.60;6.10;;;;;;;20.40;82.33;99927.44;105675;1256;73738;-60
2023/08/25 05:47:22;;;;;;;6.60;5.90;;;;;;;20.43;82.55;99930.73;105776;1253;69221;-60
2023/08/25 05:49:50;;;;;;;7.00;6.00;;;;;;;20.45;82.52;99930.69;105732;1256;69092;-59
2023/08/25 05:52:17;;;;;;;6.70;6.10;;;;;;;20.48;82.61;99932.55;105620;1254;74748;-60
2023/08/25 05:54:44;;;;;;;8.60;6.30;;;;;;;20.50;82.54;99932.91;105557;1257;82340;-60
2023/08/25 05:57:10;;;;;;;7.10;6.10;;;;;;;20.51;82.56;99931.25;105542;1256;72948;-60
2023/08/25 05:59:37;;;;;;;7.70;6.20;;;;;;;20.54;82.61;99939.42;105524;1254;69154;-60
2023/08/25 06:02:05;;;;;;;7.20;6.10;;;;;;;20.56;82.70;99932.06;105456;1254;69169;-60
2023/08/25 06:04:32;;;;;;;7.90;6.10;;;;;;;20.60;82.74;99928.38;105626;1254;74501;-60
2023/08/25 06:06:58;;;;;;;8.10;6.20;;;;;;;20.64;82.84;99929.80;105539;1256;83487;-59
2023/08/25 06:09:26;;;;;;;8.70;6.20;;;;;;;20.66;82.87;99933.52;105516;1254;72594;-60
2023/08/25 06:11:53;;;;;;;10.80;6.20;;;;;;;20.67;82.80;99936.83;105593;1254;69060;-60
2023/08/25 06:14:20;;;;;;;8.30;6.60;;;;;;;20.69;82.93;99936.44;105583;1256;69931;-60
2023/08/25 06:16:47;;;;;;;9.60;6.80;;;;;;;20.73;83.08;99936.85;105553;1254;73661;-58
2023/08/25 06:19:14;;;;;;;8.10;6.50;;;;;;;20.77;82.97;99939.19;105630;1254;82406;-59
2023/08/25 06:21:41;;;;;;;10.00;6.70;;;;;;;20.80;83.19;99937.81;105640;1256;72666;-59
2023/08/25 06:24:09;;;;;;;8.80;6.70;;;;;;;20.85;83.21;99934.91;105841;1252;69073;-59
2023/08/25 06:26:37;;;;;;;7.40;6.70;;;;;;;20.91;83.27;99936.11;105734;1254;69132;-58
2023/08/25 06:29:04;;;;;;;9.60;6.70;;;;;;;20.97;83.29;99939.36;105865;1255;73794;-59
2023/08/25 06:31:33;;;;;;;9.40;7.10;;;;;;;21.03;83.37;99931.75;105674;1255;82748;-58
2023/08/25 06:34:04;;;;;;;10.40;6.90;;;;;;;21.10;83.66;99928.63;105692;1255;72774;-58
2023/08/25 06:36:32;;;;;;;7.30;6.50;;;;;;;21.17;83.53;99928.35;105703;1254;69092;-58
2023/08/25 06:39:00;;;;;;;9.10;7.50;;;;;;;21.24;83.55;99933.80;105639;1256;69109;-59
2023/08/25 06:41:27;;;;;;;7.50;6.80;;;;;;;21.29;83.43;99930.83;105668;1257;74668;-58
2023/08/25 06:43:57;;;;;;;10.80;7.20;;;;;;;21.34;83.39;99928.23;105527;1254;82278;-59
2023/08/25 06:46:24;;;;;;;11.90;7.90;;;;;;;21.40;83.46;99927.92;105517;1255;72610;-59
2023/08/25 06:48:51;;;;;;;9.50;7.80;;;;;;;21.46;83.54;99925.27;105720;1254;69205;-59
2023/08/25 06:51:18;;;;;;;11.80;8.30;;;;;;;21.53;83.70;99927.07;105570;1256;69113;-59
2023/08/25 06:53:45;;;;;;;8.30;7.50;;;;;;;21.62;83.66;99928.59;105636;1255;74803;-59
2023/08/25 06:56:12;;;;;;;8.80;7.90;;;;;;;21.71;83.62;99927.81;105594;1257;83462;-59
2023/08/25 06:58:38;;;;;;;9.30;7.90;;;;;;;21.79;83.64;99928.16;105639;1256;72812;-60
2023/08/25 07:01:05;;;;;;;11.60;8.00;;;;;;;21.87;83.57;99928.62;105593;1257;69192;-60
2023/08/25 07:03:32;;;;;;;8.40;7.20;;;;;;;21.98;83.71;99928.48;105632;1256;69509;-59
2023/08/25 07:06:01;;;;;;;10.60;8.00;;;;;;;22.08;83.66;99926.51;105719;1254;74996;-60
2023/08/25 07:08:28;;;;;;;8.40;7.50;;;;;;;22.17;83.69;99922.48;105599;1254;82085;-61
2023/08/25 07:10:56;;;;;;;8.50;7.60;;;;;;;22.27;83.46;99920.54;105781;1253;72662;-60
2023/08/25 07:13:22;;;;;;;8.00;7.20;;;;;;;22.35;83.33;99919.60;105512;1255;69084;-59
2023/08/25 07:15:50;;;;;;;12.20;6.90;;;;;;;22.45;83.34;99920.63;105523;1256;69198;-60
2023/08/25 07:18:17;;;;;;;9.50;6.90;;;;;;;22.56;83.14;99915.46;105628;1257;74550;-59
2023/08/25 07:20:44;;;;;;;9.40;7.10;;;;;;;22.67;83.11;99916.16;105588;1256;83435;-59
2023/08/25 07:23:11;;;;;;;7.60;6.80;;;;;;;22.79;83.16;99914.84;105579;1251;72682;-62
2023/08/25 07:25:43;;;;;;;8.50;6.20;;;;;;;22.93;83.02;99920.17;105585;1255;69125;-64
2023/08/25 07:28:11;;;;;;;9.20;7.20;;;;;;;23.05;82.98;99919.77;105749;1256;69181;-61
2023/08/25 07:30:38;;;;;;;8.50;7.50;;;;;;;23.19;82.84;99917.27;105715;1254;73639;-61
2023/08/25 07:33:07;;;;;;;6.90;6.20;;;;;;;23.32;82.36;99915.70;105553;1256;82499;-61
2023/08/25 07:35:35;;;;;;;9.50;6.30;;;;;;;23.44;82.30;99913.41;105716;1257;73730;-62
2023/08/25 07:38:03;;;;;;;12.20;6.20;;;;;;;23.56;82.07;99909.83;105587;1254;69186;-60
2023/08/25 07:40:31;;;;;;;7.70;5.90;;;;;;;23.71;81.65;99910.05;105597;1257;69121;-59
2023/08/25 07:43:03;;;;;;;7.40;5.60;;;;;;;23.82;81.21;99908.92;105585;1256;73733;-58
2023/08/25 07:45:30;;;;;;;7.10;6.10;;;;;;;23.97;80.94;99911.34;105661;1256;83249;-59
2023/08/25 07:48:01;;;;;;;9.70;5.70;;;;;;;24.08;80.22;99911.81;105553;1254;72579;-59
2023/08/25 07:50:29;;;;;;;7.50;5.70;;;;;;;24.20;79.90;99919.56;105517;1255;69182;-59
2023/08/25 07:52:56;;;;;;;7.90;5.80;;;;;;;24.32;79.48;99917.97;105480;1257;69189;-58
2023/08/25 07:55:24;;;;;;;12.00;6.00;;;;;;;24.44;79.24;99917.30;105649;1255;72424;-58
2023/08/25 07:57:52;;;;;;;10.70;5.90;;;;;;;24.56;78.87;99913.60;105366;1256;256701;-58
2023/08/25 08:00:20;;;;;;;8.40;5.80;;;;;;;24.67;78.32;99913.83;105580;1256;74105;-58
2023/08/25 08:02:48;;;;;;;8.50;5.30;;;;;;;24.77;78.20;99908.71;105599;1257;69233;-58
2023/08/25 08:05:17;;;;;;;7.60;5.90;;;;;;;24.88;77.87;99906.09;105585;1256;69185;-58
2023/08/25 08:07:45;;;;;;;6.30;5.20;;;;;;;25.01;77.74;99906.33;105609;1255;75056;-59
2023/08/25 08:10:12;;;;;;;10.70;5.50;;;;;;;25.16;77.09;99900.63;105589;1255;82728;-58
2023/08/25 08:12:42;;;;;;;8.20;5.30;;;;;;;25.31;76.52;99900.16;105562;1251;73860;-59
2023/08/25 08:15:10;;;;;;;8.20;4.70;;;;;;;25.47;76.34;99898.58;105584;1254;69189;-61
2023/08/25 08:17:38;;;;;;;5.40;4.90;;;;;;;25.59;75.54;99892.69;105596;1256;69253;-59
2023/08/25 08:20:07;;;;;;;8.10;4.60;;;;;;;25.69;74.71;99893.55;105567;1254;74770;-60
2023/08/25 08:22:34;;;;;;;8.00;5.20;;;;;;;25.79;74.35;99889.24;105594;1255;82593;-60
2023/08/25 08:25:01;;;;;;;6.20;4.60;;;;;;;25.90;73.84;99893.47;105550;1251;73746;-60
2023/08/25 08:27:28;;;;;;;8.00;4.40;;;;;;;26.01;73.10;99891.67;105572;1254;69176;-60
2023/08/25 08:29:55;;;;;;;7.80;4.00;;;;;;;26.12;72.17;99891.37;105560;1257;69179;-60
2023/08/25 08:32:22;;;;;;;6.90;4.10;;;;;;;26.22;71.35;99894.21;105627;1256;75342;-61
2023/08/25 08:34:49;;;;;;;8.40;3.80;;;;;;;26.30;70.71;99896.71;105714;1252;83379;-61
2023/08/25 08:37:16;;;;;;;6.90;4.20;;;;;;;26.39;70.24;99895.12;105580;1256;73177;-63
2023/08/25 08:39:44;;;;;;;5.60;3.50;;;;;;;26.49;69.48;99892.81;105501;1256;69199;-63
2023/08/25 08:42:14;;;;;;;7.50;3.50;;;;;;;26.61;69.24;99901.91;105587;1254;69064;-63
2023/08/25 08:44:46;;;;;;;6.50;3.70;;;;;;;26.75;68.69;99903.30;105659;1257;73947;-64
2023/08/25 08:47:17;;;;;;;9.70;3.80;;;;;;;26.89;68.11;99898.04;105572;1254;82525;-64
2023/08/25 08:49:45;;;;;;;6.30;3.50;;;;;;;27.01;67.73;99896.14;105380;1257;73897;-61
2023/08/25 08:52:12;;;;;;;7.00;3.60;;;;;;;27.09;66.69;99901.52;105490;1254;69294;-61
2023/08/25 08:54:41;;;;;;;6.90;3.60;;;;;;;27.11;65.91;99901.73;105573;1256;69288;-61
2023/08/25 08:57:11;;;;;;;7.40;3.70;;;;;;;27.16;65.67;99907.35;105608;1257;74661;-63
2023/08/25 08:59:38;;;;;;;4.80;3.70;;;;;;;27.25;65.50;99907.67;105743;1257;82341;-61
2023/08/25 09:02:05;;;;;;;8.50;3.70;;;;;;;27.33;64.83;99912.15;105538;1257;72758;-61
2023/08/25 09:04:33;;;;;;;5.60;3.40;;;;;;;27.39;64.44;99915.04;105593;1257;69108;-61
2023/08/25 09:07:02;;;;;;;9.30;3.60;;;;;;;27.47;64.09;99910.91;105616;1255;69125;-61
2023/08/25 09:09:30;;;;;;;8.10;3.70;;;;;;;27.55;63.67;99897.56;105501;1257;74272;-61
2023/08/25 09:11:57;;;;;;;3.90;2.90;;;;;;;27.60;63.09;99900.24;105552;1257;83812;-63
2023/08/25 09:14:28;;;;;;;4.50;3.10;;;;;;;27.65;62.80;99901.84;105560;1256;72853;-63
2023/08/25 09:17:06;;;;;;;5.20;3.50;;;;;;;27.72;62.62;99903.91;105537;1254;69089;-62
2023/08/25 09:19:33;;;;;;;8.00;3.80;;;;;;;27.81;62.01;99915.74;105566;1257;69186;-62
2023/08/25 09:22:02;;;;;;;8.50;3.60;;;;;;;27.88;61.85;99913.90;105592;1257;73771;-61
2023/08/25 09:24:30;;;;;;;4.10;3.20;;;;;;;27.94;61.58;99916.50;105572;1257;83450;-61
2023/08/25 09:26:57;;;;;;;7.20;3.20;;;;;;;28.06;61.52;99922.00;105597;1255;73654;-61
2023/08/25 09:29:25;;;;;;;8.10;3.60;;;;;;;28.16;61.13;99928.51;105656;1253;69144;-61
2023/08/25 09:31:52;;;;;;;7.00;3.50;;;;;;;28.23;60.86;99926.98;105578;1254;69026;-61
2023/08/25 09:34:19;;;;;;;4.20;3.10;;;;;;;28.31;60.83;99928.73;105554;1256;73761;-61
2023/08/25 09:36:56;;;;;;;5.60;3.40;;;;;;;28.43;60.55;99932.82;105571;1264;83667;-61
2023/08/25 09:39:23;;;;;;;9.50;3.40;;;;;;;28.55;60.32;99932.13;105589;1257;73731;-62
2023/08/25 09:41:50;;;;;;;7.80;3.20;;;;;;;28.64;59.68;99928.33;105607;1256;69230;-63
2023/08/25 09:44:17;;;;;;;7.40;3.30;;;;;;;28.74;59.58;99926.43;105578;1256;69086;-61
2023/08/25 09:46:47;;;;;;;6.00;3.30;;;;;;;28.84;59.24;99922.51;105574;1256;74238;-61
2023/08/25 09:49:14;;;;;;;7.00;2.90;;;;;;;28.93;58.80;99923.20;105593;1255;85066;-61
2023/08/25 09:51:43;;;;;;;5.90;3.30;;;;;;;29.06;58.55;99919.86;105564;1256;71862;-59
2023/08/25 09:54:15;;;;;;;7.50;3.40;;;;;;;29.19;58.29;99919.29;105495;1257;69099;-61
2023/08/25 09:56:44;;;;;;;6.00;3.10;;;;;;;29.29;57.84;99913.00;105658;1255;69499;-61
2023/08/25 09:59:13;;;;;;;5.70;2.50;;;;;;;29.46;57.95;99910.36;105636;1255;73886;-61
2023/08/25 10:01:44;;;;;;;8.30;2.90;;;;;;;29.68;57.56;99906.83;105655;1256;83309;-62
2023/08/25 10:04:16;;;;;;;6.00;3.00;;;;;;;29.89;57.29;99902.16;105643;1256;73490;-61
2023/08/25 10:06:43;;;;;;;5.80;2.50;;;;;;;30.09;56.87;99904.15;105563;1254;69048;-62
2023/08/25 10:09:10;;;;;;;5.50;2.70;;;;;;;30.36;56.58;99906.63;105550;1252;69145;-62
2023/08/25 10:11:42;;;;;;;4.40;2.80;;;;;;;30.63;56.16;99907.33;105650;1254;74819;-62
2023/08/25 10:14:13;;;;;;;7.80;3.10;;;;;;;30.96;55.83;99902.79;105610;1257;83343;-62
2023/08/25 10:16:50;;;;;;;5.20;2.20;;;;;;;31.26;54.86;99904.14;105543;1257;74298;-62
2023/08/25 10:19:23;;;;;;;8.20;3.10;;;;;;;31.42;53.88;99907.39;105583;1254;69157;-62
2023/08/25 10:21:51;;;;;;;5.00;2.70;;;;;;;31.60;53.49;99908.92;105559;1256;69232;-62
2023/08/25 10:24:22;;;;;;;6.10;2.50;;;;;;;31.63;52.71;99914.14;105639;1255;73820;-62
2023/08/25 10:26:51;;;;;;;3.50;2.30;;;;;;;31.52;52.25;99914.40;105582;1258;83681;-62
2023/08/25 10:29:20;;;;;;;3.60;2.80;;;;;;;31.51;52.04;99914.16;105595;1253;72780;-61
2023/08/25 10:31:51;;;;;;;4.30;2.60;;;;;;;31.52;51.17;99923.53;105594;1256;69161;-62
2023/08/25 10:34:42;;;;;;;6.20;2.30;;;;;;;31.40;50.84;99917.13;105623;1254;69264;-60
2023/08/25 10:37:11;;;;;;;4.90;2.50;;;;;;;31.20;50.64;99917.77;105591;1256;74263;-62
2023/08/25 10:39:46;;;;;;;3.60;2.30;;;;;;;31.18;50.60;99923.31;105635;1254;83301;-62
2023/08/25 10:42:13;;;;;;;4.20;2.40;;;;;;;31.22;50.43;99924.95;105601;1258;74067;-64
2023/08/25 10:44:41;;;;;;;6.20;2.60;;;;;;;31.33;50.77;99928.95;105592;1257;69182;-61
2023/08/25 10:47:08;;;;;;;5.00;3.10;;;;;;;31.55;50.63;99929.16;105531;1254;69180;-62
2023/08/25 10:49:38;;;;;;;4.40;2.30;;;;;;;31.92;50.79;99927.19;105606;1260;74985;-62
2023/08/25 10:52:16;;;;;;;3.10;2.20;;;;;;;32.38;50.57;99928.50;105585;1256;83389;-64
2023/08/25 10:54:47;;;;;;;3.60;2.60;;;;;;;32.81;50.18;99927.91;105583;1257;73508;-64
2023/08/25 10:57:21;;;;;;;7.80;2.50;;;;;;;33.12;49.00;99933.59;105572;1254;69169;-64
2023/08/25 10:59:52;;;;;;;4.20;2.30;;;;;;;33.16;47.60;99931.69;105660;1257;69176;-64
2023/08/25 11:02:34;;;;;;;4.10;2.80;;;;;;;33.23;47.42;99928.61;105643;1255;75166;-63
2023/08/25 11:05:44;;;;;;;3.50;2.50;;;;;;;33.53;47.32;99936.32;105644;1257;83319;-64
2023/08/25 11:08:24;;;;;;;3.80;1.90;;;;;;;33.58;46.12;99928.08;104974;1264;72754;-64
2023/08/25 11:11:12;;;;;;;4.30;2.50;;;;;;;33.66;45.58;99917.40;105004;1264;69199;-64
2023/08/25 11:13:39;;;;;;;3.80;2.40;;;;;;;33.62;44.98;99914.02;104998;1263;69337;-64
2023/08/25 11:16:11;;;;;;;8.30;2.70;;;;;;;33.70;44.71;99915.19;105020;1263;74110;-64
2023/08/25 11:18:41;;;;;;;4.60;2.30;;;;;;;33.80;44.56;99914.58;105035;1263;83361;-64
2023/08/25 11:21:08;;;;;;;5.80;2.20;;;;;;;33.92;44.36;99915.02;105012;1265;73562;-64
2023/08/25 11:23:42;;;;;;;3.90;2.20;;;;;;;34.08;43.97;99916.75;105003;1264;69203;-63
2023/08/25 11:26:15;;;;;;;2.50;1.60;;;;;;;34.08;43.15;99923.24;105014;1260;69206;-63
2023/08/25 11:28:43;;;;;;;3.70;1.90;;;;;;;34.25;43.56;99918.16;105028;1263;74908;-63